Time;durP1;ratioP1;P1;durP2;ratioP2;P2;SDS_P1;SDS_P2;PMS_P1;PMS_P2;Temp;Humidity;BMP_temperature;BMP_pressure;BME280_temperature;BME280_humidity;BME280_pressure;Samples;Min_cycle;Max_cycle;Signal;HPM_P1;HPM_P2
2021/08/05 00:04:41;;;;;;;;;33.25;30.00;;;;;;;;8748844;40;11474;-58
2021/08/05 00:10:43;;;;;;;;;36.75;30.75;;;;;;;;8749592;40;11285;-59
2021/08/05 00:16:45;;;;;;;;;33.50;28.75;;;;;;;;8750514;40;11091;-58
2021/08/05 00:22:48;;;;;;;;;37.25;32.50;;;;;;;;8749401;40;11144;-58
2021/08/05 00:28:50;;;;;;;;;34.67;34.67;;;;;;;;8749456;40;10575;-58
2021/08/05 00:34:52;;;;;;;;;35.33;33.33;;;;;;;;8749958;40;10145;-59
2021/08/05 00:40:57;;;;;;;;;37.00;33.67;;;;;;;;8748538;40;10278;-59
2021/08/05 00:47:00;;;;;;;;;37.67;32.67;;;;;;;;8748955;40;10347;-59
2021/08/05 00:53:04;;;;;;;;;32.67;30.67;;;;;;;;8748587;40;10737;-58
2021/08/05 00:59:06;;;;;;;;;37.67;33.67;;;;;;;;8747421;40;10292;-59
2021/08/05 01:05:10;;;;;;;;;33.00;31.33;;;;;;;;8747941;40;10092;-58
2021/08/05 01:11:43;;;;;;;;;35.33;33.00;;;;;;;;8748431;40;10255;-57
2021/08/05 01:18:00;;;;;;;;;39.33;34.00;;;;;;;;8747080;40;10153;-58
2021/08/05 01:24:10;;;;;;;;;32.00;29.67;;;;;;;;8748239;40;10098;-59
2021/08/05 01:30:13;;;;;;;;;41.33;34.33;;;;;;;;8748346;40;10210;-57
2021/08/05 01:36:16;;;;;;;;;36.00;33.67;;;;;;;;8746947;40;10296;-59
2021/08/05 01:42:20;;;;;;;;;35.33;33.67;;;;;;;;8748170;40;10323;-59
2021/08/05 01:48:23;;;;;;;;;36.67;33.33;;;;;;;;8748251;40;10011;-58
2021/08/05 01:54:26;;;;;;;;;36.00;31.33;;;;;;;;8746846;40;10162;-59
2021/08/05 02:00:28;;;;;;;;;40.33;34.33;;;;;;;;8747708;40;10079;-59
2021/08/05 02:06:36;;;;;;;;;42.33;37.67;;;;;;;;8746945;40;10085;-60
2021/08/05 02:12:58;;;;;;;;;42.00;36.67;;;;;;;;8748213;40;10188;-58
2021/08/05 02:19:01;;;;;;;;;36.33;35.00;;;;;;;;8746202;40;10023;-58
2021/08/05 02:25:03;;;;;;;;;33.33;32.33;;;;;;;;8747303;40;10457;-60
2021/08/05 02:31:08;;;;;;;;;41.33;35.67;;;;;;;;8747755;40;10093;-59
2021/08/05 02:37:11;;;;;;;;;43.33;39.00;;;;;;;;8747662;40;10019;-59
2021/08/05 02:43:14;;;;;;;;;37.33;34.67;;;;;;;;8746345;40;10746;-59
2021/08/05 02:49:17;;;;;;;;;34.33;32.33;;;;;;;;8747963;40;10103;-58
2021/08/05 02:55:20;;;;;;;;;42.67;35.67;;;;;;;;8745899;40;10041;-57
2021/08/05 03:01:23;;;;;;;;;46.67;36.67;;;;;;;;8746751;40;10069;-59
2021/08/05 03:07:25;;;;;;;;;43.67;39.33;;;;;;;;8747615;40;10188;-59
2021/08/05 03:13:29;;;;;;;;;43.33;35.00;;;;;;;;8746945;40;10623;-59
2021/08/05 03:19:31;;;;;;;;;49.67;40.67;;;;;;;;8746146;40;10067;-59
2021/08/05 03:25:33;;;;;;;;;40.33;36.67;;;;;;;;8747873;40;10201;-59
2021/08/05 03:31:35;;;;;;;;;48.00;41.67;;;;;;;;8749962;40;10817;-58
2021/08/05 03:37:37;;;;;;;;;48.00;41.67;;;;;;;;8749531;40;10038;-61
2021/08/05 03:43:40;;;;;;;;;47.67;39.67;;;;;;;;8750188;40;10459;-58
2021/08/05 03:49:42;;;;;;;;;48.00;40.33;;;;;;;;8750130;40;10296;-59
2021/08/05 03:55:45;;;;;;;;;45.67;37.33;;;;;;;;8749386;40;10298;-58
2021/08/05 04:02:02;;;;;;;;;51.00;38.00;;;;;;;;9795267;23;10423;-61
2021/08/05 04:08:05;;;;;;;;;40.67;36.33;;;;;;;;8715190;40;10358;-63
2021/08/05 04:14:07;;;;;;;;;41.33;36.00;;;;;;;;8716260;40;11545;-63
2021/08/05 04:20:11;;;;;;;;;44.00;37.33;;;;;;;;8727325;40;10232;-63
2021/08/05 04:26:13;;;;;;;;;40.33;37.33;;;;;;;;8705274;41;10931;-63
2021/08/05 04:32:15;;;;;;;;;47.33;40.67;;;;;;;;8704692;40;10179;-62
2021/08/05 04:38:17;;;;;;;;;46.67;38.33;;;;;;;;8711497;40;10309;-63
2021/08/05 04:44:19;;;;;;;;;47.67;42.00;;;;;;;;8728971;40;10414;-62
2021/08/05 04:50:23;;;;;;;;;23.33;23.00;;;;;;;;8729927;40;10489;-62
2021/08/05 04:56:28;;;;;;;;;29.33;24.33;;;;;;;;8729256;40;10203;-63
2021/08/05 05:02:30;;;;;;;;;40.00;33.33;;;;;;;;8725444;40;10028;-63
2021/08/05 05:08:32;;;;;;;;;36.33;34.67;;;;;;;;8728138;40;9920;-63
2021/08/05 05:14:36;;;;;;;;;40.33;35.33;;;;;;;;8712008;40;10542;-63
2021/08/05 05:20:40;;;;;;;;;46.00;37.00;;;;;;;;8704584;41;10692;-63
2021/08/05 05:26:42;;;;;;;;;41.67;35.67;;;;;;;;8708453;40;10482;-60
2021/08/05 05:32:46;;;;;;;;;37.75;36.25;;;;;;;;8704245;40;10804;-62
2021/08/05 05:38:48;;;;;;;;;47.00;37.50;;;;;;;;8727978;40;10971;-61
2021/08/05 05:44:51;;;;;;;;;43.33;37.00;;;;;;;;8716685;40;10614;-61
2021/08/05 05:50:53;;;;;;;;;47.00;39.00;;;;;;;;8723657;40;9877;-61
2021/08/05 05:56:56;;;;;;;;;49.75;40.50;;;;;;;;8722874;40;10912;-61
2021/08/05 06:02:59;;;;;;;;;45.00;40.50;;;;;;;;8723257;40;10941;-62
2021/08/05 06:09:02;;;;;;;;;44.25;37.00;;;;;;;;8716332;40;10792;-61
2021/08/05 06:15:05;;;;;;;;;51.75;40.50;;;;;;;;8717906;40;10841;-62
2021/08/05 06:21:07;;;;;;;;;46.50;40.00;;;;;;;;8722230;40;11758;-62
2021/08/05 06:27:09;;;;;;;;;45.25;39.50;;;;;;;;8709034;40;10920;-61
2021/08/05 06:33:11;;;;;;;;;44.00;37.00;;;;;;;;8719055;40;10656;-62
2021/08/05 06:39:13;;;;;;;;;43.50;38.75;;;;;;;;8718419;40;10618;-60
2021/08/05 06:45:16;;;;;;;;;43.75;39.75;;;;;;;;8717688;40;12269;-61
2021/08/05 06:51:18;;;;;;;;;48.00;39.50;;;;;;;;8718157;40;10767;-60
2021/08/05 06:57:20;;;;;;;;;46.50;41.50;;;;;;;;8721545;40;10507;-61
2021/08/05 07:03:22;;;;;;;;;46.25;38.00;;;;;;;;8724849;40;10732;-61
2021/08/05 07:09:25;;;;;;;;;48.75;39.00;;;;;;;;8722777;40;10772;-61
2021/08/05 07:15:27;;;;;;;;;37.25;36.50;;;;;;;;8716615;40;11076;-61
2021/08/05 07:21:30;;;;;;;;;47.75;40.50;;;;;;;;8726541;40;11353;-60
2021/08/05 07:27:32;;;;;;;;;49.50;39.25;;;;;;;;8716309;40;10868;-60
2021/08/05 07:33:34;;;;;;;;;39.50;36.50;;;;;;;;8725309;40;11051;-61
2021/08/05 07:39:36;;;;;;;;;41.25;36.25;;;;;;;;8712991;40;10504;-60
2021/08/05 07:45:39;;;;;;;;;51.50;41.75;;;;;;;;8725807;40;10561;-62
2021/08/05 07:51:42;;;;;;;;;38.25;35.50;;;;;;;;8726280;40;10481;-61
2021/08/05 07:57:44;;;;;;;;;44.50;38.00;;;;;;;;8726870;40;10396;-62
2021/08/05 08:03:47;;;;;;;;;37.25;36.25;;;;;;;;8725787;40;10993;-60
2021/08/05 08:09:49;;;;;;;;;41.75;35.25;;;;;;;;8725317;40;10675;-62
2021/08/05 08:15:52;;;;;;;;;37.50;36.25;;;;;;;;8722796;40;11008;-62
2021/08/05 08:21:54;;;;;;;;;32.00;31.50;;;;;;;;8720848;40;10599;-61
2021/08/05 08:27:57;;;;;;;;;36.25;33.50;;;;;;;;8722548;40;10404;-62
2021/08/05 08:33:59;;;;;;;;;57.25;46.00;;;;;;;;8721912;40;10662;-61
2021/08/05 08:40:03;;;;;;;;;34.00;29.50;;;;;;;;8721470;40;11117;-62
2021/08/05 08:46:08;;;;;;;;;46.25;41.00;;;;;;;;8720999;40;10402;-62
2021/08/05 08:52:11;;;;;;;;;55.00;44.00;;;;;;;;8717525;40;10424;-61
2021/08/05 08:58:16;;;;;;;;;41.00;38.00;;;;;;;;8709384;40;10528;-62
2021/08/05 09:04:19;;;;;;;;;30.25;29.75;;;;;;;;8709985;40;10732;-61
2021/08/05 09:10:22;;;;;;;;;31.25;31.00;;;;;;;;8711258;40;10697;-61
2021/08/05 09:16:31;;;;;;;;;39.00;35.50;;;;;;;;8718380;40;10437;-61
2021/08/05 09:22:42;;;;;;;;;34.25;33.75;;;;;;;;8233525;40;20002329;-60
2021/08/05 09:28:58;;;;;;;;;35.50;33.75;;;;;;;;8715621;40;10728;-61
2021/08/05 09:35:08;;;;;;;;;35.00;33.50;;;;;;;;8718438;40;10378;-62
2021/08/05 09:41:10;;;;;;;;;31.00;29.25;;;;;;;;8720041;40;11034;-61
2021/08/05 09:47:17;;;;;;;;;34.00;30.50;;;;;;;;8715468;40;10438;-61
2021/08/05 09:53:19;;;;;;;;;31.50;31.50;;;;;;;;8703643;40;10685;-62
2021/08/05 09:59:23;;;;;;;;;32.25;32.25;;;;;;;;8710799;40;10506;-60
2021/08/05 10:05:26;;;;;;;;;29.25;28.00;;;;;;;;8719906;40;10583;-61
2021/08/05 10:11:37;;;;;;;;;32.00;30.25;;;;;;;;8716418;40;10508;-61
2021/08/05 10:17:42;;;;;;;;;32.50;32.50;;;;;;;;8720050;40;10475;-62
2021/08/05 10:23:45;;;;;;;;;31.50;31.50;;;;;;;;8720168;40;11160;-61
2021/08/05 10:29:50;;;;;;;;;30.50;29.50;;;;;;;;8716152;40;10625;-60
2021/08/05 10:35:53;;;;;;;;;31.25;31.00;;;;;;;;8709034;40;10443;-62
2021/08/05 10:41:58;;;;;;;;;30.25;29.00;;;;;;;;8708478;40;10656;-62
2021/08/05 10:48:02;;;;;;;;;26.75;24.00;;;;;;;;8713100;40;10446;-62
2021/08/05 10:54:05;;;;;;;;;29.00;27.75;;;;;;;;8709035;40;10956;-61
2021/08/05 11:00:16;;;;;;;;;31.25;29.25;;;;;;;;8711741;40;10762;-62
2021/08/05 11:06:25;;;;;;;;;27.50;25.50;;;;;;;;8707417;40;10642;-62
2021/08/05 11:12:44;;;;;;;;;22.50;22.50;;;;;;;;8714718;40;10655;-62
2021/08/05 11:19:23;;;;;;;;;29.25;28.25;;;;;;;;8719363;40;10413;-61
2021/08/05 11:25:25;;;;;;;;;32.25;26.75;;;;;;;;8710124;40;10639;-62
2021/08/05 11:31:30;;;;;;;;;32.00;31.50;;;;;;;;8695967;41;10391;-62
2021/08/05 11:37:34;;;;;;;;;41.00;37.00;;;;;;;;8697580;41;10706;-62
2021/08/05 11:43:38;;;;;;;;;28.00;28.00;;;;;;;;8696522;41;11863;-62
2021/08/05 11:49:50;;;;;;;;;34.00;31.00;;;;;;;;8698958;41;10995;-61
2021/08/05 11:55:54;;;;;;;;;27.00;25.25;;;;;;;;8699942;41;10656;-62
2021/08/05 12:02:11;;;;;;;;;35.25;30.50;;;;;;;;8715846;40;11280;-62
2021/08/05 12:08:18;;;;;;;;;23.50;22.25;;;;;;;;8713098;40;10420;-62
2021/08/05 12:14:21;;;;;;;;;24.00;20.75;;;;;;;;8709384;40;10665;-62
2021/08/05 12:20:33;;;;;;;;;19.75;19.25;;;;;;;;8697891;40;10661;-62
2021/08/05 12:26:37;;;;;;;;;27.50;23.25;;;;;;;;8703394;40;10668;-62
2021/08/05 12:32:59;;;;;;;;;19.50;17.00;;;;;;;;8715290;40;10426;-61
2021/08/05 12:39:08;;;;;;;;;15.25;14.25;;;;;;;;8699864;40;10395;-62
2021/08/05 12:45:10;;;;;;;;;25.50;23.75;;;;;;;;8711890;40;10486;-62
2021/08/05 12:51:16;;;;;;;;;37.00;33.75;;;;;;;;8710206;40;10427;-61
2021/08/05 12:57:20;;;;;;;;;33.75;32.25;;;;;;;;8710302;40;10585;-62
2021/08/05 13:03:41;;;;;;;;;23.25;20.75;;;;;;;;8708848;40;10401;-61
2021/08/05 13:09:52;;;;;;;;;18.75;17.50;;;;;;;;8705628;40;11204;-63
2021/08/05 13:15:54;;;;;;;;;19.25;19.00;;;;;;;;8704745;40;11163;-62
2021/08/05 13:21:58;;;;;;;;;26.25;23.50;;;;;;;;8699568;40;10653;-62
2021/08/05 13:28:07;;;;;;;;;28.00;26.00;;;;;;;;8704415;40;11258;-61
2021/08/05 13:34:12;;;;;;;;;17.25;17.00;;;;;;;;8711752;40;10423;-62
2021/08/05 13:40:18;;;;;;;;;28.50;25.50;;;;;;;;8701933;40;11232;-62
2021/08/05 13:46:23;;;;;;;;;20.75;20.75;;;;;;;;8706145;40;11593;-61
2021/08/05 13:52:25;;;;;;;;;20.00;16.25;;;;;;;;8720716;40;10445;-61
2021/08/05 13:58:27;;;;;;;;;19.75;19.00;;;;;;;;8720743;40;10612;-62
2021/08/05 14:04:30;;;;;;;;;17.00;17.00;;;;;;;;8722779;40;10620;-63
2021/08/05 14:10:32;;;;;;;;;17.50;17.50;;;;;;;;8690103;41;10483;-64
2021/08/05 14:16:35;;;;;;;;;20.75;17.75;;;;;;;;8722681;40;10838;-63
2021/08/05 14:22:39;;;;;;;;;23.75;20.50;;;;;;;;8723362;40;10421;-63
2021/08/05 14:28:41;;;;;;;;;18.50;16.00;;;;;;;;8725169;40;10453;-63
2021/08/05 14:34:43;;;;;;;;;18.25;18.25;;;;;;;;8725443;40;10307;-64
2021/08/05 14:40:46;;;;;;;;;17.25;16.75;;;;;;;;8724783;40;10329;-63
2021/08/05 14:46:49;;;;;;;;;16.50;15.50;;;;;;;;8725330;40;10273;-64
2021/08/05 14:52:51;;;;;;;;;18.75;16.25;;;;;;;;8724419;40;10441;-64
2021/08/05 14:58:53;;;;;;;;;21.00;15.00;;;;;;;;8724621;40;10336;-64
2021/08/05 15:04:57;;;;;;;;;22.00;18.00;;;;;;;;8723753;40;11005;-64
2021/08/05 15:11:03;;;;;;;;;20.75;17.00;;;;;;;;8701201;40;10984;-64
2021/08/05 15:17:06;;;;;;;;;21.00;18.25;;;;;;;;8716454;40;10882;-64
2021/08/05 15:23:09;;;;;;;;;22.00;15.50;;;;;;;;8727657;40;10530;-64
2021/08/05 15:29:11;;;;;;;;;23.00;20.75;;;;;;;;8727590;40;10673;-63
2021/08/05 15:35:14;;;;;;;;;35.25;31.50;;;;;;;;8728243;40;11847;-64
2021/08/05 15:41:16;;;;;;;;;22.50;20.50;;;;;;;;8727391;40;10453;-63
2021/08/05 15:47:18;;;;;;;;;23.00;20.50;;;;;;;;8728236;40;10916;-63
2021/08/05 15:53:20;;;;;;;;;21.25;19.50;;;;;;;;8727040;40;10334;-64
2021/08/05 15:59:24;;;;;;;;;22.75;21.75;;;;;;;;8727456;40;10515;-64
2021/08/05 16:05:26;;;;;;;;;24.25;22.00;;;;;;;;8728301;40;10398;-64
2021/08/05 16:11:28;;;;;;;;;23.00;22.00;;;;;;;;8727458;40;10644;-62
2021/08/05 16:17:31;;;;;;;;;23.50;21.00;;;;;;;;8727681;40;10394;-64
2021/08/05 16:23:35;;;;;;;;;23.00;20.00;;;;;;;;8727119;40;10431;-64
2021/08/05 16:29:37;;;;;;;;;20.00;20.00;;;;;;;;8727351;40;11171;-63
2021/08/05 16:35:39;;;;;;;;;23.00;21.50;;;;;;;;8728129;40;10350;-62
2021/08/05 16:41:41;;;;;;;;;28.75;27.25;;;;;;;;8727571;40;10495;-63
2021/08/05 16:47:46;;;;;;;;;21.50;19.00;;;;;;;;8728224;40;10411;-64
2021/08/05 16:53:49;;;;;;;;;32.75;29.50;;;;;;;;8726486;40;10408;-64
2021/08/05 16:59:51;;;;;;;;;29.75;29.75;;;;;;;;8725428;40;10407;-64
2021/08/05 17:05:53;;;;;;;;;24.75;24.00;;;;;;;;8727445;40;11197;-64
2021/08/05 17:11:55;;;;;;;;;25.00;24.25;;;;;;;;8726360;40;10467;-64
2021/08/05 17:17:58;;;;;;;;;20.50;20.50;;;;;;;;8728958;40;10420;-63
2021/08/05 17:24:00;;;;;;;;;25.00;23.00;;;;;;;;8725875;40;10464;-64
2021/08/05 17:30:06;;;;;;;;;26.50;24.00;;;;;;;;8726072;40;10952;-64
2021/08/05 17:36:08;;;;;;;;;33.25;27.75;;;;;;;;8726862;40;10399;-64
2021/08/05 17:42:10;;;;;;;;;29.00;29.00;;;;;;;;8726781;40;10650;-64
2021/08/05 17:48:19;;;;;;;;;27.25;27.00;;;;;;;;8718243;40;10362;-63
2021/08/05 17:54:21;;;;;;;;;26.50;23.00;;;;;;;;8726114;40;10534;-65
2021/08/05 18:00:23;;;;;;;;;24.50;24.00;;;;;;;;8726908;40;10319;-64
2021/08/05 18:06:25;;;;;;;;;32.50;30.75;;;;;;;;8725987;40;10766;-64
2021/08/05 18:12:28;;;;;;;;;33.25;28.50;;;;;;;;8725227;40;10590;-64
2021/08/05 18:18:30;;;;;;;;;31.00;27.50;;;;;;;;8726753;40;10641;-64
2021/08/05 18:24:33;;;;;;;;;24.75;21.25;;;;;;;;8725361;40;10408;-64
2021/08/05 18:30:35;;;;;;;;;30.50;24.50;;;;;;;;8725717;40;10452;-63
2021/08/05 18:36:38;;;;;;;;;31.00;26.75;;;;;;;;8726374;40;10502;-63
2021/08/05 18:42:42;;;;;;;;;28.25;27.50;;;;;;;;8724799;40;10524;-63
2021/08/05 18:48:44;;;;;;;;;22.75;22.00;;;;;;;;8725603;40;10439;-63
2021/08/05 18:54:46;;;;;;;;;25.00;20.00;;;;;;;;8724596;40;10385;-64
2021/08/05 19:00:48;;;;;;;;;30.00;28.00;;;;;;;;8725194;40;10375;-63
2021/08/05 19:06:50;;;;;;;;;24.25;21.25;;;;;;;;8726267;40;10367;-63
2021/08/05 19:12:55;;;;;;;;;26.25;26.25;;;;;;;;8724463;40;10413;-64
2021/08/05 19:18:57;;;;;;;;;22.00;21.50;;;;;;;;8725430;40;10289;-63
2021/08/05 19:25:00;;;;;;;;;27.25;25.50;;;;;;;;8724617;40;10402;-63
2021/08/05 19:31:03;;;;;;;;;26.75;26.25;;;;;;;;8726057;40;10464;-63
2021/08/05 19:37:05;;;;;;;;;26.00;24.00;;;;;;;;8724758;40;10743;-64
2021/08/05 19:43:08;;;;;;;;;19.50;19.00;;;;;;;;8723887;40;10453;-63
2021/08/05 19:49:10;;;;;;;;;22.50;22.00;;;;;;;;8725641;40;10458;-63
2021/08/05 19:55:13;;;;;;;;;21.75;21.25;;;;;;;;8723423;40;10374;-63
2021/08/05 20:01:15;;;;;;;;;18.00;16.50;;;;;;;;8724460;40;10615;-63
2021/08/05 20:07:17;;;;;;;;;20.00;17.50;;;;;;;;8723309;40;10418;-63
2021/08/05 20:13:19;;;;;;;;;21.75;17.75;;;;;;;;8725850;40;10408;-63
2021/08/05 20:19:22;;;;;;;;;15.50;13.50;;;;;;;;8725725;40;10321;-63
2021/08/05 20:25:25;;;;;;;;;22.25;20.50;;;;;;;;8725516;40;10603;-62
2021/08/05 20:31:29;;;;;;;;;20.50;19.25;;;;;;;;8725795;40;10597;-62
2021/08/05 20:37:31;;;;;;;;;20.50;20.50;;;;;;;;8726017;40;10342;-63
2021/08/05 20:43:37;;;;;;;;;17.50;15.00;;;;;;;;8725332;40;10548;-63
2021/08/05 20:50:33;;;;;;;;;19.25;18.75;;;;;;;;8725668;40;10501;-62
2021/08/05 20:56:35;;;;;;;;;20.25;18.25;;;;;;;;8724882;40;10512;-64
2021/08/05 21:02:36;;;;;;;;;18.75;14.75;;;;;;;;8724742;40;10349;-65
2021/08/05 21:08:39;;;;;;;;;21.50;20.25;;;;;;;;8724124;40;11219;-64
2021/08/05 21:14:41;;;;;;;;;22.50;20.50;;;;;;;;8724670;40;10366;-63
2021/08/05 21:20:44;;;;;;;;;23.75;21.00;;;;;;;;8724285;40;10396;-63
2021/08/05 21:26:46;;;;;;;;;24.00;22.25;;;;;;;;8724215;40;10371;-64
2021/08/05 21:32:49;;;;;;;;;20.00;20.00;;;;;;;;8725595;40;10601;-64
2021/08/05 21:38:51;;;;;;;;;22.50;20.50;;;;;;;;8725199;40;10306;-63
2021/08/05 21:44:53;;;;;;;;;22.00;22.00;;;;;;;;8724492;40;10559;-62
2021/08/05 21:50:56;;;;;;;;;25.75;21.50;;;;;;;;8725134;40;10397;-63
2021/08/05 21:57:00;;;;;;;;;21.75;21.75;;;;;;;;8715327;40;10407;-63
2021/08/05 22:03:02;;;;;;;;;28.25;26.25;;;;;;;;8723830;40;10414;-63
2021/08/05 22:09:06;;;;;;;;;32.00;32.00;;;;;;;;8723740;40;10454;-63
2021/08/05 22:15:09;;;;;;;;;29.75;28.00;;;;;;;;8723718;40;10624;-64
2021/08/05 22:21:11;;;;;;;;;26.00;25.00;;;;;;;;8724166;40;10413;-63
2021/08/05 22:27:14;;;;;;;;;25.75;24.25;;;;;;;;8723480;40;10408;-63
2021/08/05 22:33:17;;;;;;;;;27.25;23.00;;;;;;;;8724088;40;10646;-63
2021/08/05 22:39:19;;;;;;;;;21.00;17.75;;;;;;;;8715351;40;10403;-64
2021/08/05 22:45:21;;;;;;;;;24.75;24.50;;;;;;;;8723232;40;10994;-63
2021/08/05 22:51:23;;;;;;;;;24.25;24.25;;;;;;;;8722998;40;10638;-63
2021/08/05 22:57:26;;;;;;;;;11.50;8.00;;;;;;;;8722666;40;10486;-63
2021/08/05 23:03:29;;;;;;;;;19.50;18.50;;;;;;;;8723643;40;10390;-63
2021/08/05 23:09:32;;;;;;;;;20.50;19.00;;;;;;;;8722779;40;10632;-63
2021/08/05 23:15:36;;;;;;;;;16.00;13.25;;;;;;;;8723056;40;10590;-63
2021/08/05 23:21:38;;;;;;;;;15.25;13.50;;;;;;;;8723237;40;11265;-63
2021/08/05 23:27:40;;;;;;;;;13.75;12.50;;;;;;;;8722310;40;10422;-62
2021/08/05 23:33:42;;;;;;;;;16.50;16.25;;;;;;;;8722549;40;10928;-64
2021/08/05 23:39:46;;;;;;;;;18.75;17.25;;;;;;;;8721778;40;10967;-64
2021/08/05 23:45:48;;;;;;;;;14.75;14.75;;;;;;;;8725560;40;10622;-64
2021/08/05 23:51:50;;;;;;;;;17.50;15.50;;;;;;;;8726407;40;10739;-63
2021/08/05 23:57:52;;;;;;;;;17.50;17.50;;;;;;;;8725819;40;10515;-63
